sensor_id;sensor_type;location;lat;lon;timestamp;P1;durP1;ratioP1;P2;durP2;ratioP2
12118;SDS011;6123;48.864;9.200;2022-09-23T00:00:46;4.00;;;3.67;;
12118;SDS011;6123;48.864;9.200;2022-09-23T00:03:12;3.50;;;3.28;;
12118;SDS011;6123;48.864;9.200;2022-09-23T00:05:40;3.67;;;3.38;;
12118;SDS011;6123;48.864;9.200;2022-09-23T00:08:06;3.78;;;3.47;;
12118;SDS011;6123;48.864;9.200;2022-09-23T00:10:34;4.18;;;3.78;;
12118;SDS011;6123;48.864;9.200;2022-09-23T00:13:01;3.72;;;3.40;;
12118;SDS011;6123;48.864;9.200;2022-09-23T00:15:27;4.00;;;3.70;;
12118;SDS011;6123;48.864;9.200;2022-09-23T00:17:55;3.50;;;3.20;;
12118;SDS011;6123;48.864;9.200;2022-09-23T00:20:21;3.95;;;3.65;;
12118;SDS011;6123;48.864;9.200;2022-09-23T00:22:46;3.67;;;3.38;;
12118;SDS011;6123;48.864;9.200;2022-09-23T00:25:12;3.67;;;3.38;;
12118;SDS011;6123;48.864;9.200;2022-09-23T00:27:38;3.47;;;3.17;;
12118;SDS011;6123;48.864;9.200;2022-09-23T00:30:05;3.58;;;3.28;;
12118;SDS011;6123;48.864;9.200;2022-09-23T00:32:35;3.83;;;3.53;;
12118;SDS011;6123;48.864;9.200;2022-09-23T00:35:00;3.97;;;3.67;;
12118;SDS011;6123;48.864;9.200;2022-09-23T00:37:29;3.80;;;3.50;;
12118;SDS011;6123;48.864;9.200;2022-09-23T00:39:57;4.00;;;3.45;;
12118;SDS011;6123;48.864;9.200;2022-09-23T00:42:24;3.42;;;3.22;;
12118;SDS011;6123;48.864;9.200;2022-09-23T00:47:51;4.10;;;3.65;;
12118;SDS011;6123;48.864;9.200;2022-09-23T00:50:15;4.80;;;3.85;;
12118;SDS011;6123;48.864;9.200;2022-09-23T00:52:45;3.80;;;3.50;;
12118;SDS011;6123;48.864;9.200;2022-09-23T00:55:15;4.82;;;3.63;;
12118;SDS011;6123;48.864;9.200;2022-09-23T00:57:44;4.32;;;3.97;;
12118;SDS011;6123;48.864;9.200;2022-09-23T01:00:11;4.88;;;4.47;;
12118;SDS011;6123;48.864;9.200;2022-09-23T01:02:40;4.68;;;4.28;;
12118;SDS011;6123;48.864;9.200;2022-09-23T01:05:06;4.63;;;4.22;;
12118;SDS011;6123;48.864;9.200;2022-09-23T01:07:32;5.10;;;4.60;;
12118;SDS011;6123;48.864;9.200;2022-09-23T01:09:58;5.60;;;5.07;;
12118;SDS011;6123;48.864;9.200;2022-09-23T01:12:29;6.20;;;4.30;;
12118;SDS011;6123;48.864;9.200;2022-09-23T01:15:27;5.47;;;4.90;;
12118;SDS011;6123;48.864;9.200;2022-09-23T01:20:36;4.65;;;4.25;;
12118;SDS011;6123;48.864;9.200;2022-09-23T01:34:39;5.97;;;5.47;;
12118;SDS011;6123;48.864;9.200;2022-09-23T01:37:11;7.05;;;5.82;;
12118;SDS011;6123;48.864;9.200;2022-09-23T01:39:50;7.55;;;6.85;;
12118;SDS011;6123;48.864;9.200;2022-09-23T01:42:38;6.68;;;6.03;;
12118;SDS011;6123;48.864;9.200;2022-09-23T01:45:13;6.45;;;5.93;;
12118;SDS011;6123;48.864;9.200;2022-09-23T01:47:49;6.28;;;5.78;;
12118;SDS011;6123;48.864;9.200;2022-09-23T01:50:29;5.72;;;5.22;;
12118;SDS011;6123;48.864;9.200;2022-09-23T01:53:20;6.50;;;5.90;;
12118;SDS011;6123;48.864;9.200;2022-09-23T01:55:58;5.78;;;5.25;;
12118;SDS011;6123;48.864;9.200;2022-09-23T01:59:18;6.53;;;5.55;;
12118;SDS011;6123;48.864;9.200;2022-09-23T02:01:26;5.30;;;4.80;;
12118;SDS011;6123;48.864;9.200;2022-09-23T02:04:02;5.47;;;5.03;;
12118;SDS011;6123;48.864;9.200;2022-09-23T02:06:35;6.20;;;5.70;;
12118;SDS011;6123;48.864;9.200;2022-09-23T02:09:09;5.75;;;5.25;;
12118;SDS011;6123;48.864;9.200;2022-09-23T02:11:38;5.95;;;5.45;;
12118;SDS011;6123;48.864;9.200;2022-09-23T02:16:48;5.25;;;4.78;;
12118;SDS011;6123;48.864;9.200;2022-09-23T02:21:58;9.05;;;5.78;;
12118;SDS011;6123;48.864;9.200;2022-09-23T02:24:49;6.70;;;6.00;;
12118;SDS011;6123;48.864;9.200;2022-09-23T02:27:28;5.82;;;5.32;;
12118;SDS011;6123;48.864;9.200;2022-09-23T02:30:28;5.55;;;5.15;;
12118;SDS011;6123;48.864;9.200;2022-09-23T02:36:09;6.95;;;6.28;;
12118;SDS011;6123;48.864;9.200;2022-09-23T02:38:45;6.60;;;6.00;;
12118;SDS011;6123;48.864;9.200;2022-09-23T02:41:27;5.30;;;4.88;;
12118;SDS011;6123;48.864;9.200;2022-09-23T02:44:02;5.60;;;5.10;;
12118;SDS011;6123;48.864;9.200;2022-09-23T02:46:32;5.97;;;5.28;;
12118;SDS011;6123;48.864;9.200;2022-09-23T02:51:30;4.70;;;4.28;;
12118;SDS011;6123;48.864;9.200;2022-09-23T02:54:01;5.30;;;4.80;;
12118;SDS011;6123;48.864;9.200;2022-09-23T02:56:29;5.93;;;4.88;;
12118;SDS011;6123;48.864;9.200;2022-09-23T02:58:55;5.07;;;4.68;;
12118;SDS011;6123;48.864;9.200;2022-09-23T03:04:06;5.13;;;4.57;;
12118;SDS011;6123;48.864;9.200;2022-09-23T03:12:28;5.07;;;4.55;;
12118;SDS011;6123;48.864;9.200;2022-09-23T03:20:16;4.72;;;4.22;;
12118;SDS011;6123;48.864;9.200;2022-09-23T03:22:52;4.45;;;4.15;;
12118;SDS011;6123;48.864;9.200;2022-09-23T03:25:25;4.55;;;4.20;;
12118;SDS011;6123;48.864;9.200;2022-09-23T03:27:55;4.85;;;4.45;;
12118;SDS011;6123;48.864;9.200;2022-09-23T03:30:23;6.43;;;4.47;;
12118;SDS011;6123;48.864;9.200;2022-09-23T03:32:50;4.45;;;4.00;;
12118;SDS011;6123;48.864;9.200;2022-09-23T03:35:17;5.53;;;5.03;;
12118;SDS011;6123;48.864;9.200;2022-09-23T03:40:16;4.68;;;4.38;;
12118;SDS011;6123;48.864;9.200;2022-09-23T03:42:54;6.20;;;5.60;;
12118;SDS011;6123;48.864;9.200;2022-09-23T03:45:24;5.20;;;4.55;;
12118;SDS011;6123;48.864;9.200;2022-09-23T03:47:53;5.53;;;5.03;;
12118;SDS011;6123;48.864;9.200;2022-09-23T03:50:21;5.50;;;5.10;;
12118;SDS011;6123;48.864;9.200;2022-09-23T03:52:49;5.25;;;4.75;;
12118;SDS011;6123;48.864;9.200;2022-09-23T03:55:18;5.75;;;5.25;;
12118;SDS011;6123;48.864;9.200;2022-09-23T03:57:44;5.53;;;5.13;;
12118;SDS011;6123;48.864;9.200;2022-09-23T04:00:12;4.78;;;4.40;;
12118;SDS011;6123;48.864;9.200;2022-09-23T04:02:42;5.32;;;4.90;;
12118;SDS011;6123;48.864;9.200;2022-09-23T04:05:09;5.68;;;5.18;;
12118;SDS011;6123;48.864;9.200;2022-09-23T04:07:35;5.60;;;5.20;;
12118;SDS011;6123;48.864;9.200;2022-09-23T04:10:04;5.10;;;4.60;;
12118;SDS011;6123;48.864;9.200;2022-09-23T04:12:30;4.68;;;4.05;;
12118;SDS011;6123;48.864;9.200;2022-09-23T04:14:59;4.35;;;4.05;;
12118;SDS011;6123;48.864;9.200;2022-09-23T04:17:24;4.80;;;4.40;;
12118;SDS011;6123;48.864;9.200;2022-09-23T04:19:50;4.72;;;4.38;;
12118;SDS011;6123;48.864;9.200;2022-09-23T04:22:18;4.32;;;4.00;;
12118;SDS011;6123;48.864;9.200;2022-09-23T04:24:43;4.28;;;3.97;;
12118;SDS011;6123;48.864;9.200;2022-09-23T04:27:09;5.00;;;4.60;;
12118;SDS011;6123;48.864;9.200;2022-09-23T04:29:35;4.55;;;4.25;;
12118;SDS011;6123;48.864;9.200;2022-09-23T04:32:00;4.40;;;4.00;;
12118;SDS011;6123;48.864;9.200;2022-09-23T04:34:26;4.85;;;4.45;;
12118;SDS011;6123;48.864;9.200;2022-09-23T04:36:51;4.22;;;3.92;;
12118;SDS011;6123;48.864;9.200;2022-09-23T04:39:17;4.57;;;4.18;;
12118;SDS011;6123;48.864;9.200;2022-09-23T04:41:45;4.43;;;4.03;;
12118;SDS011;6123;48.864;9.200;2022-09-23T04:44:13;5.55;;;5.05;;
12118;SDS011;6123;48.864;9.200;2022-09-23T04:46:42;4.70;;;4.32;;
12118;SDS011;6123;48.864;9.200;2022-09-23T04:49:12;4.07;;;3.75;;
12118;SDS011;6123;48.864;9.200;2022-09-23T04:51:38;5.13;;;4.10;;
12118;SDS011;6123;48.864;9.200;2022-09-23T04:54:10;4.50;;;3.90;;
12118;SDS011;6123;48.864;9.200;2022-09-23T04:56:36;5.65;;;5.15;;
12118;SDS011;6123;48.864;9.200;2022-09-23T04:59:03;4.78;;;4.30;;
12118;SDS011;6123;48.864;9.200;2022-09-23T05:01:32;4.60;;;4.20;;
12118;SDS011;6123;48.864;9.200;2022-09-23T05:04:03;6.70;;;4.68;;
12118;SDS011;6123;48.864;9.200;2022-09-23T05:06:31;5.88;;;5.38;;
12118;SDS011;6123;48.864;9.200;2022-09-23T05:09:03;7.70;;;5.13;;
12118;SDS011;6123;48.864;9.200;2022-09-23T05:11:31;6.43;;;5.82;;
12118;SDS011;6123;48.864;9.200;2022-09-23T05:13:57;7.25;;;6.65;;
12118;SDS011;6123;48.864;9.200;2022-09-23T05:16:26;6.40;;;5.90;;
12118;SDS011;6123;48.864;9.200;2022-09-23T05:18:52;5.75;;;5.25;;
12118;SDS011;6123;48.864;9.200;2022-09-23T05:21:22;5.85;;;5.25;;
12118;SDS011;6123;48.864;9.200;2022-09-23T05:23:49;5.78;;;5.28;;
12118;SDS011;6123;48.864;9.200;2022-09-23T05:26:19;5.95;;;5.40;;
12118;SDS011;6123;48.864;9.200;2022-09-23T05:28:48;5.88;;;5.43;;
12118;SDS011;6123;48.864;9.200;2022-09-23T05:31:14;5.95;;;5.45;;
12118;SDS011;6123;48.864;9.200;2022-09-23T05:33:45;6.20;;;5.60;;
12118;SDS011;6123;48.864;9.200;2022-09-23T05:36:13;5.47;;;5.00;;
12118;SDS011;6123;48.864;9.200;2022-09-23T05:38:39;6.65;;;5.60;;
12118;SDS011;6123;48.864;9.200;2022-09-23T05:41:06;5.47;;;4.97;;
12118;SDS011;6123;48.864;9.200;2022-09-23T05:43:34;4.95;;;4.47;;
12118;SDS011;6123;48.864;9.200;2022-09-23T05:48:32;4.97;;;4.57;;
12118;SDS011;6123;48.864;9.200;2022-09-23T05:51:00;5.68;;;5.18;;
12118;SDS011;6123;48.864;9.200;2022-09-23T05:53:26;6.85;;;5.60;;
12118;SDS011;6123;48.864;9.200;2022-09-23T05:55:54;5.82;;;5.22;;
12118;SDS011;6123;48.864;9.200;2022-09-23T05:58:23;6.47;;;5.95;;
12118;SDS011;6123;48.864;9.200;2022-09-23T06:00:49;6.95;;;6.25;;
12118;SDS011;6123;48.864;9.200;2022-09-23T06:03:16;5.95;;;5.38;;
12118;SDS011;6123;48.864;9.200;2022-09-23T06:05:44;5.80;;;5.30;;
12118;SDS011;6123;48.864;9.200;2022-09-23T06:08:10;6.10;;;5.20;;
12118;SDS011;6123;48.864;9.200;2022-09-23T06:10:40;7.05;;;6.28;;
12118;SDS011;6123;48.864;9.200;2022-09-23T06:13:07;8.02;;;5.65;;
12118;SDS011;6123;48.864;9.200;2022-09-23T06:15:34;7.18;;;6.20;;
12118;SDS011;6123;48.864;9.200;2022-09-23T06:18:02;7.32;;;6.63;;
12118;SDS011;6123;48.864;9.200;2022-09-23T06:20:28;6.55;;;5.93;;
12118;SDS011;6123;48.864;9.200;2022-09-23T06:22:53;6.22;;;5.72;;
12118;SDS011;6123;48.864;9.200;2022-09-23T06:25:20;6.75;;;6.05;;
12118;SDS011;6123;48.864;9.200;2022-09-23T06:27:53;6.25;;;5.50;;
12118;SDS011;6123;48.864;9.200;2022-09-23T06:30:20;7.35;;;5.82;;
12118;SDS011;6123;48.864;9.200;2022-09-23T06:32:53;7.03;;;5.63;;
12118;SDS011;6123;48.864;9.200;2022-09-23T06:35:20;6.40;;;5.78;;
12118;SDS011;6123;48.864;9.200;2022-09-23T06:37:51;6.18;;;5.57;;
12118;SDS011;6123;48.864;9.200;2022-09-23T06:40:17;8.77;;;5.80;;
12118;SDS011;6123;48.864;9.200;2022-09-23T06:42:43;6.22;;;5.63;;
12118;SDS011;6123;48.864;9.200;2022-09-23T06:45:10;7.05;;;5.75;;
12118;SDS011;6123;48.864;9.200;2022-09-23T06:47:39;6.60;;;5.45;;
12118;SDS011;6123;48.864;9.200;2022-09-23T06:50:06;6.15;;;5.53;;
12118;SDS011;6123;48.864;9.200;2022-09-23T06:52:32;5.80;;;5.20;;
12118;SDS011;6123;48.864;9.200;2022-09-23T06:54:59;5.90;;;5.30;;
12118;SDS011;6123;48.864;9.200;2022-09-23T06:57:30;7.30;;;5.35;;
12118;SDS011;6123;48.864;9.200;2022-09-23T06:59:57;5.80;;;5.30;;
12118;SDS011;6123;48.864;9.200;2022-09-23T07:02:23;6.07;;;5.47;;
12118;SDS011;6123;48.864;9.200;2022-09-23T07:04:52;6.97;;;5.50;;
12118;SDS011;6123;48.864;9.200;2022-09-23T07:07:21;5.97;;;5.47;;
12118;SDS011;6123;48.864;9.200;2022-09-23T07:09:50;5.28;;;4.88;;
12118;SDS011;6123;48.864;9.200;2022-09-23T07:12:16;6.13;;;5.18;;
12118;SDS011;6123;48.864;9.200;2022-09-23T07:14:47;7.35;;;5.50;;
12118;SDS011;6123;48.864;9.200;2022-09-23T07:17:14;5.30;;;4.90;;
12118;SDS011;6123;48.864;9.200;2022-09-23T07:19:40;7.05;;;4.80;;
12118;SDS011;6123;48.864;9.200;2022-09-23T07:22:06;5.68;;;5.13;;
12118;SDS011;6123;48.864;9.200;2022-09-23T07:24:34;5.63;;;5.13;;
12118;SDS011;6123;48.864;9.200;2022-09-23T07:27:00;8.55;;;5.22;;
12118;SDS011;6123;48.864;9.200;2022-09-23T07:29:26;6.00;;;5.50;;
12118;SDS011;6123;48.864;9.200;2022-09-23T07:31:52;5.65;;;5.15;;
12118;SDS011;6123;48.864;9.200;2022-09-23T07:34:17;6.18;;;5.57;;
12118;SDS011;6123;48.864;9.200;2022-09-23T07:36:43;5.55;;;5.13;;
12118;SDS011;6123;48.864;9.200;2022-09-23T07:39:11;6.15;;;5.50;;
12118;SDS011;6123;48.864;9.200;2022-09-23T07:41:37;5.72;;;5.22;;
12118;SDS011;6123;48.864;9.200;2022-09-23T07:44:03;6.47;;;5.15;;
12118;SDS011;6123;48.864;9.200;2022-09-23T07:46:31;6.22;;;5.10;;
12118;SDS011;6123;48.864;9.200;2022-09-23T07:48:58;6.78;;;6.18;;
12118;SDS011;6123;48.864;9.200;2022-09-23T07:51:26;7.18;;;5.50;;
12118;SDS011;6123;48.864;9.200;2022-09-23T07:53:54;6.20;;;5.50;;
12118;SDS011;6123;48.864;9.200;2022-09-23T07:56:26;9.00;;;5.65;;
12118;SDS011;6123;48.864;9.200;2022-09-23T07:58:53;5.10;;;4.60;;
12118;SDS011;6123;48.864;9.200;2022-09-23T08:01:34;4.90;;;4.47;;
12118;SDS011;6123;48.864;9.200;2022-09-23T08:04:13;5.72;;;4.70;;
12118;SDS011;6123;48.864;9.200;2022-09-23T08:06:45;5.00;;;4.50;;
12118;SDS011;6123;48.864;9.200;2022-09-23T08:09:13;5.97;;;4.93;;
12118;SDS011;6123;48.864;9.200;2022-09-23T08:11:40;3.80;;;3.50;;
12118;SDS011;6123;48.864;9.200;2022-09-23T08:14:10;4.00;;;3.38;;
12118;SDS011;6123;48.864;9.200;2022-09-23T08:16:40;3.22;;;3.03;;
12118;SDS011;6123;48.864;9.200;2022-09-23T08:19:08;3.55;;;2.90;;
12118;SDS011;6123;48.864;9.200;2022-09-23T08:21:34;3.40;;;3.10;;
12118;SDS011;6123;48.864;9.200;2022-09-23T08:24:01;4.25;;;2.97;;
12118;SDS011;6123;48.864;9.200;2022-09-23T08:26:27;3.10;;;2.80;;
12118;SDS011;6123;48.864;9.200;2022-09-23T08:28:53;2.85;;;2.65;;
12118;SDS011;6123;48.864;9.200;2022-09-23T08:31:20;3.60;;;3.30;;
12118;SDS011;6123;48.864;9.200;2022-09-23T08:33:55;3.47;;;3.10;;
12118;SDS011;6123;48.864;9.200;2022-09-23T08:36:26;3.30;;;3.00;;
12118;SDS011;6123;48.864;9.200;2022-09-23T08:38:52;3.13;;;2.83;;
12118;SDS011;6123;48.864;9.200;2022-09-23T08:44:23;3.20;;;2.90;;
12118;SDS011;6123;48.864;9.200;2022-09-23T08:47:06;3.05;;;2.85;;
12118;SDS011;6123;48.864;9.200;2022-09-23T08:49:49;3.75;;;3.13;;
12118;SDS011;6123;48.864;9.200;2022-09-23T08:55:24;2.97;;;2.65;;
12118;SDS011;6123;48.864;9.200;2022-09-23T09:01:13;3.47;;;3.20;;
12118;SDS011;6123;48.864;9.200;2022-09-23T09:03:50;3.08;;;2.88;;
12118;SDS011;6123;48.864;9.200;2022-09-23T09:09:29;3.08;;;2.78;;
12118;SDS011;6123;48.864;9.200;2022-09-23T09:12:00;3.13;;;2.83;;
12118;SDS011;6123;48.864;9.200;2022-09-23T09:17:41;3.28;;;2.70;;
12118;SDS011;6123;48.864;9.200;2022-09-23T09:25:53;3.15;;;2.95;;
12118;SDS011;6123;48.864;9.200;2022-09-23T09:28:26;3.13;;;2.90;;
12118;SDS011;6123;48.864;9.200;2022-09-23T09:33:50;3.08;;;2.60;;
12118;SDS011;6123;48.864;9.200;2022-09-23T09:39:21;3.78;;;3.03;;
12118;SDS011;6123;48.864;9.200;2022-09-23T09:41:50;3.10;;;2.90;;
12118;SDS011;6123;48.864;9.200;2022-09-23T09:44:24;3.22;;;3.03;;
12118;SDS011;6123;48.864;9.200;2022-09-23T09:49:56;5.63;;;3.15;;
12118;SDS011;6123;48.864;9.200;2022-09-23T09:52:30;3.20;;;2.83;;
12118;SDS011;6123;48.864;9.200;2022-09-23T09:55:29;5.35;;;3.45;;
12118;SDS011;6123;48.864;9.200;2022-09-23T09:57:51;4.50;;;3.22;;
12118;SDS011;6123;48.864;9.200;2022-09-23T10:03:00;3.40;;;3.10;;
12118;SDS011;6123;48.864;9.200;2022-09-23T10:05:49;3.63;;;3.33;;
12118;SDS011;6123;48.864;9.200;2022-09-23T10:11:02;4.47;;;4.07;;
12118;SDS011;6123;48.864;9.200;2022-09-23T10:13:32;4.00;;;3.70;;
12118;SDS011;6123;48.864;9.200;2022-09-23T10:16:02;3.67;;;3.38;;
12118;SDS011;6123;48.864;9.200;2022-09-23T10:18:29;5.65;;;4.07;;
12118;SDS011;6123;48.864;9.200;2022-09-23T10:21:06;4.57;;;3.20;;
12118;SDS011;6123;48.864;9.200;2022-09-23T10:23:39;4.20;;;3.80;;
12118;SDS011;6123;48.864;9.200;2022-09-23T10:26:07;4.65;;;4.25;;
12118;SDS011;6123;48.864;9.200;2022-09-23T10:33:50;4.45;;;4.15;;
12118;SDS011;6123;48.864;9.200;2022-09-23T10:36:29;4.43;;;4.03;;
12118;SDS011;6123;48.864;9.200;2022-09-23T10:38:57;4.93;;;4.22;;
12118;SDS011;6123;48.864;9.200;2022-09-23T10:50:43;4.35;;;4.05;;
12118;SDS011;6123;48.864;9.200;2022-09-23T10:53:14;4.35;;;3.95;;
12118;SDS011;6123;48.864;9.200;2022-09-23T11:17:54;10.60;;;5.03;;
12118;SDS011;6123;48.864;9.200;2022-09-23T11:23:08;3.70;;;3.40;;
12118;SDS011;6123;48.864;9.200;2022-09-23T11:34:18;3.95;;;3.50;;
12118;SDS011;6123;48.864;9.200;2022-09-23T11:37:07;5.00;;;3.33;;
12118;SDS011;6123;48.864;9.200;2022-09-23T11:39:42;4.90;;;4.03;;
12118;SDS011;6123;48.864;9.200;2022-09-23T11:42:16;3.97;;;3.58;;
12118;SDS011;6123;48.864;9.200;2022-09-23T11:44:51;4.07;;;3.47;;
12118;SDS011;6123;48.864;9.200;2022-09-23T11:47:35;4.38;;;3.97;;
12118;SDS011;6123;48.864;9.200;2022-09-23T11:50:18;3.90;;;3.60;;
12118;SDS011;6123;48.864;9.200;2022-09-23T11:52:47;3.97;;;3.65;;
12118;SDS011;6123;48.864;9.200;2022-09-23T11:55:26;3.63;;;3.20;;
12118;SDS011;6123;48.864;9.200;2022-09-23T11:58:00;5.18;;;3.67;;
12118;SDS011;6123;48.864;9.200;2022-09-23T12:00:34;3.38;;;3.08;;
12118;SDS011;6123;48.864;9.200;2022-09-23T12:06:06;3.90;;;3.60;;
12118;SDS011;6123;48.864;9.200;2022-09-23T12:08:43;4.10;;;3.70;;
12118;SDS011;6123;48.864;9.200;2022-09-23T12:14:42;4.88;;;3.65;;
12118;SDS011;6123;48.864;9.200;2022-09-23T12:25:55;5.07;;;2.80;;
12118;SDS011;6123;48.864;9.200;2022-09-23T12:28:27;3.08;;;2.80;;
12118;SDS011;6123;48.864;9.200;2022-09-23T12:30:56;3.40;;;3.10;;
12118;SDS011;6123;48.864;9.200;2022-09-23T12:33:26;3.70;;;2.60;;
12118;SDS011;6123;48.864;9.200;2022-09-23T12:38:37;3.78;;;2.90;;
12118;SDS011;6123;48.864;9.200;2022-09-23T12:46:32;4.07;;;3.50;;
12118;SDS011;6123;48.864;9.200;2022-09-23T12:48:59;3.63;;;3.20;;
12118;SDS011;6123;48.864;9.200;2022-09-23T12:51:35;4.55;;;3.28;;
12118;SDS011;6123;48.864;9.200;2022-09-23T13:01:47;3.92;;;3.20;;
12118;SDS011;6123;48.864;9.200;2022-09-23T13:04:31;9.38;;;8.48;;
12118;SDS011;6123;48.864;9.200;2022-09-23T13:07:25;6.80;;;6.20;;
12118;SDS011;6123;48.864;9.200;2022-09-23T13:09:56;4.82;;;3.80;;
12118;SDS011;6123;48.864;9.200;2022-09-23T13:12:41;6.28;;;3.40;;
12118;SDS011;6123;48.864;9.200;2022-09-23T13:15:22;6.03;;;3.30;;
12118;SDS011;6123;48.864;9.200;2022-09-23T13:20:47;4.22;;;2.90;;
12118;SDS011;6123;48.864;9.200;2022-09-23T13:23:26;3.45;;;2.47;;
12118;SDS011;6123;48.864;9.200;2022-09-23T13:25:55;4.70;;;2.72;;
12118;SDS011;6123;48.864;9.200;2022-09-23T13:28:38;2.67;;;2.40;;
12118;SDS011;6123;48.864;9.200;2022-09-23T13:31:17;5.15;;;2.92;;
12118;SDS011;6123;48.864;9.200;2022-09-23T13:33:46;3.75;;;2.60;;
12118;SDS011;6123;48.864;9.200;2022-09-23T13:36:20;2.95;;;2.75;;
12118;SDS011;6123;48.864;9.200;2022-09-23T13:38:46;3.53;;;2.50;;
12118;SDS011;6123;48.864;9.200;2022-09-23T13:41:16;2.85;;;2.60;;
12118;SDS011;6123;48.864;9.200;2022-09-23T13:43:51;3.50;;;2.92;;
12118;SDS011;6123;48.864;9.200;2022-09-23T13:46:31;2.40;;;2.20;;
12118;SDS011;6123;48.864;9.200;2022-09-23T13:49:03;3.53;;;2.60;;
12118;SDS011;6123;48.864;9.200;2022-09-23T13:51:33;5.05;;;3.15;;
12118;SDS011;6123;48.864;9.200;2022-09-23T13:54:00;3.00;;;2.75;;
12118;SDS011;6123;48.864;9.200;2022-09-23T13:56:28;3.25;;;2.95;;
12118;SDS011;6123;48.864;9.200;2022-09-23T14:04:36;3.60;;;3.30;;
12118;SDS011;6123;48.864;9.200;2022-09-23T14:07:02;4.38;;;3.40;;
12118;SDS011;6123;48.864;9.200;2022-09-23T14:09:31;4.78;;;4.20;;
12118;SDS011;6123;48.864;9.200;2022-09-23T14:12:03;6.22;;;3.17;;
12118;SDS011;6123;48.864;9.200;2022-09-23T14:14:30;4.43;;;3.78;;
12118;SDS011;6123;48.864;9.200;2022-09-23T14:17:01;3.92;;;3.53;;
12118;SDS011;6123;48.864;9.200;2022-09-23T14:19:31;3.70;;;3.40;;
12118;SDS011;6123;48.864;9.200;2022-09-23T14:21:59;3.63;;;3.33;;
12118;SDS011;6123;48.864;9.200;2022-09-23T14:24:29;4.05;;;3.60;;
12118;SDS011;6123;48.864;9.200;2022-09-23T14:26:58;4.75;;;4.35;;
12118;SDS011;6123;48.864;9.200;2022-09-23T14:29:29;3.75;;;3.45;;
12118;SDS011;6123;48.864;9.200;2022-09-23T14:32:21;4.25;;;3.15;;
12118;SDS011;6123;48.864;9.200;2022-09-23T14:34:49;4.57;;;3.20;;
12118;SDS011;6123;48.864;9.200;2022-09-23T14:40:21;4.05;;;3.67;;
12118;SDS011;6123;48.864;9.200;2022-09-23T14:43:14;3.83;;;3.40;;
12118;SDS011;6123;48.864;9.200;2022-09-23T14:45:53;3.60;;;3.30;;
12118;SDS011;6123;48.864;9.200;2022-09-23T14:50:49;3.42;;;3.22;;
12118;SDS011;6123;48.864;9.200;2022-09-23T14:55:49;3.15;;;2.95;;
12118;SDS011;6123;48.864;9.200;2022-09-23T14:58:25;3.47;;;3.20;;
12118;SDS011;6123;48.864;9.200;2022-09-23T15:00:56;3.42;;;2.83;;
12118;SDS011;6123;48.864;9.200;2022-09-23T15:03:23;4.28;;;3.58;;
12118;SDS011;6123;48.864;9.200;2022-09-23T15:05:55;4.97;;;3.25;;
12118;SDS011;6123;48.864;9.200;2022-09-23T15:08:26;3.40;;;3.10;;
12118;SDS011;6123;48.864;9.200;2022-09-23T15:10:54;3.90;;;3.45;;
12118;SDS011;6123;48.864;9.200;2022-09-23T15:13:22;3.55;;;3.30;;
12118;SDS011;6123;48.864;9.200;2022-09-23T15:15:52;4.93;;;3.75;;
12118;SDS011;6123;48.864;9.200;2022-09-23T15:18:20;5.68;;;3.42;;
12118;SDS011;6123;48.864;9.200;2022-09-23T15:20:53;3.63;;;3.35;;
12118;SDS011;6123;48.864;9.200;2022-09-23T15:26:09;3.20;;;2.90;;
12118;SDS011;6123;48.864;9.200;2022-09-23T15:28:35;2.95;;;2.75;;
12118;SDS011;6123;48.864;9.200;2022-09-23T15:31:01;3.50;;;2.58;;
12118;SDS011;6123;48.864;9.200;2022-09-23T15:33:32;3.00;;;2.65;;
12118;SDS011;6123;48.864;9.200;2022-09-23T15:35:58;3.00;;;2.80;;
12118;SDS011;6123;48.864;9.200;2022-09-23T15:38:23;3.08;;;2.60;;
12118;SDS011;6123;48.864;9.200;2022-09-23T15:40:53;4.60;;;3.10;;
12118;SDS011;6123;48.864;9.200;2022-09-23T15:43:20;3.20;;;2.60;;
12118;SDS011;6123;48.864;9.200;2022-09-23T15:45:51;3.00;;;2.70;;
12118;SDS011;6123;48.864;9.200;2022-09-23T15:48:25;3.55;;;3.10;;
12118;SDS011;6123;48.864;9.200;2022-09-23T15:50:56;4.78;;;3.15;;
12118;SDS011;6123;48.864;9.200;2022-09-23T15:53:28;4.15;;;3.20;;
12118;SDS011;6123;48.864;9.200;2022-09-23T15:55:54;5.55;;;3.60;;
12118;SDS011;6123;48.864;9.200;2022-09-23T15:58:22;6.68;;;3.80;;
12118;SDS011;6123;48.864;9.200;2022-09-23T16:00:50;4.35;;;3.17;;
12118;SDS011;6123;48.864;9.200;2022-09-23T16:03:19;4.95;;;3.55;;
12118;SDS011;6123;48.864;9.200;2022-09-23T16:05:53;3.83;;;3.42;;
12118;SDS011;6123;48.864;9.200;2022-09-23T16:08:22;5.63;;;3.58;;
12118;SDS011;6123;48.864;9.200;2022-09-23T16:10:50;2.88;;;2.33;;
12118;SDS011;6123;48.864;9.200;2022-09-23T16:13:17;3.28;;;2.50;;
12118;SDS011;6123;48.864;9.200;2022-09-23T16:15:45;3.63;;;2.85;;
12118;SDS011;6123;48.864;9.200;2022-09-23T16:18:11;3.63;;;3.33;;
12118;SDS011;6123;48.864;9.200;2022-09-23T16:20:38;4.13;;;3.72;;
12118;SDS011;6123;48.864;9.200;2022-09-23T16:23:07;3.15;;;2.85;;
12118;SDS011;6123;48.864;9.200;2022-09-23T16:25:39;3.72;;;3.35;;
12118;SDS011;6123;48.864;9.200;2022-09-23T16:28:08;4.55;;;2.85;;
12118;SDS011;6123;48.864;9.200;2022-09-23T16:30:34;3.05;;;2.70;;
12118;SDS011;6123;48.864;9.200;2022-09-23T16:33:00;3.20;;;2.88;;
12118;SDS011;6123;48.864;9.200;2022-09-23T16:35:26;2.95;;;2.65;;
12118;SDS011;6123;48.864;9.200;2022-09-23T16:37:56;4.35;;;2.80;;
12118;SDS011;6123;48.864;9.200;2022-09-23T16:40:22;4.18;;;3.08;;
12118;SDS011;6123;48.864;9.200;2022-09-23T16:42:49;5.60;;;3.83;;
12118;SDS011;6123;48.864;9.200;2022-09-23T16:45:17;4.20;;;3.80;;
12118;SDS011;6123;48.864;9.200;2022-09-23T16:47:46;3.97;;;3.67;;
12118;SDS011;6123;48.864;9.200;2022-09-23T16:50:17;3.88;;;3.25;;
12118;SDS011;6123;48.864;9.200;2022-09-23T16:52:44;5.00;;;3.95;;
12118;SDS011;6123;48.864;9.200;2022-09-23T16:55:10;4.53;;;3.88;;
12118;SDS011;6123;48.864;9.200;2022-09-23T16:57:37;4.10;;;3.72;;
12118;SDS011;6123;48.864;9.200;2022-09-23T17:00:05;4.85;;;4.35;;
12118;SDS011;6123;48.864;9.200;2022-09-23T17:02:52;4.30;;;3.78;;
12118;SDS011;6123;48.864;9.200;2022-09-23T17:05:36;6.55;;;3.60;;
12118;SDS011;6123;48.864;9.200;2022-09-23T17:08:02;3.63;;;2.50;;
12118;SDS011;6123;48.864;9.200;2022-09-23T17:10:28;3.97;;;2.50;;
12118;SDS011;6123;48.864;9.200;2022-09-23T17:12:54;2.92;;;2.65;;
12118;SDS011;6123;48.864;9.200;2022-09-23T17:15:20;3.42;;;3.13;;
12118;SDS011;6123;48.864;9.200;2022-09-23T17:17:46;4.60;;;3.15;;
12118;SDS011;6123;48.864;9.200;2022-09-23T17:20:12;4.43;;;3.03;;
12118;SDS011;6123;48.864;9.200;2022-09-23T17:22:38;4.30;;;3.42;;
12118;SDS011;6123;48.864;9.200;2022-09-23T17:25:05;4.55;;;3.60;;
12118;SDS011;6123;48.864;9.200;2022-09-23T17:27:31;6.55;;;4.75;;
12118;SDS011;6123;48.864;9.200;2022-09-23T17:29:57;9.27;;;7.20;;
12118;SDS011;6123;48.864;9.200;2022-09-23T17:32:25;7.88;;;7.07;;
12118;SDS011;6123;48.864;9.200;2022-09-23T17:34:51;6.60;;;5.60;;
12118;SDS011;6123;48.864;9.200;2022-09-23T17:37:17;5.95;;;4.97;;
12118;SDS011;6123;48.864;9.200;2022-09-23T17:39:43;6.10;;;4.80;;
12118;SDS011;6123;48.864;9.200;2022-09-23T17:42:10;4.95;;;4.30;;
12118;SDS011;6123;48.864;9.200;2022-09-23T17:44:35;4.40;;;4.00;;
12118;SDS011;6123;48.864;9.200;2022-09-23T17:47:02;4.10;;;3.67;;
12118;SDS011;6123;48.864;9.200;2022-09-23T17:49:30;5.05;;;4.50;;
12118;SDS011;6123;48.864;9.200;2022-09-23T17:52:02;5.25;;;4.75;;
12118;SDS011;6123;48.864;9.200;2022-09-23T17:54:33;6.43;;;5.68;;
12118;SDS011;6123;48.864;9.200;2022-09-23T17:57:00;6.20;;;5.70;;
12118;SDS011;6123;48.864;9.200;2022-09-23T17:59:29;7.70;;;7.10;;
12118;SDS011;6123;48.864;9.200;2022-09-23T18:01:54;8.45;;;7.25;;
12118;SDS011;6123;48.864;9.200;2022-09-23T18:04:20;8.43;;;7.63;;
12118;SDS011;6123;48.864;9.200;2022-09-23T18:06:46;7.97;;;7.28;;
12118;SDS011;6123;48.864;9.200;2022-09-23T18:09:12;7.63;;;7.03;;
12118;SDS011;6123;48.864;9.200;2022-09-23T18:11:41;7.10;;;6.50;;
12118;SDS011;6123;48.864;9.200;2022-09-23T18:14:15;7.90;;;7.13;;
12118;SDS011;6123;48.864;9.200;2022-09-23T18:16:44;7.13;;;6.53;;
12118;SDS011;6123;48.864;9.200;2022-09-23T18:19:15;7.32;;;6.63;;